Time;durP1;ratioP1;P1;durP2;ratioP2;P2;SDS_P1;SDS_P2;PMS_P1;PMS_P2;Temp;Humidity;BMP_temperature;BMP_pressure;BME280_temperature;BME280_humidity;BME280_pressure;Samples;Min_cycle;Max_cycle;Signal;HPM_P1;HPM_P2
2022/12/27 00:01:07;;;;;;;9.35;1.02;;;4.10;92.00;;;;;;5092922;27;20889;-86
2022/12/27 00:03:33;;;;;;;10.05;0.95;;;4.10;92.00;;;;;;5092303;27;20874;-88
2022/12/27 00:05:58;;;;;;;8.05;1.15;;;4.00;92.20;;;;;;5093156;27;20449;-87
2022/12/27 00:08:24;;;;;;;9.30;1.27;;;4.00;92.30;;;;;;5091837;27;20477;-87
2022/12/27 00:10:51;;;;;;;10.50;0.90;;;4.00;92.40;;;;;;5093377;27;21002;-87
2022/12/27 00:13:16;;;;;;;10.15;1.38;;;4.10;92.50;;;;;;5091714;27;20418;-87
2022/12/27 00:15:42;;;;;;;8.53;1.03;;;3.90;92.50;;;;;;5092870;27;20916;-87
2022/12/27 00:18:07;;;;;;;12.68;1.15;;;3.80;92.60;;;;;;5109447;27;20448;-87
2022/12/27 00:20:33;;;;;;;9.85;1.00;;;3.80;92.80;;;;;;5092618;27;21227;-88
2022/12/27 00:23:00;;;;;;;11.67;1.00;;;4.00;92.90;;;;;;5092804;27;20451;-87
2022/12/27 00:25:25;;;;;;;10.77;1.17;;;3.80;93.00;;;;;;5091719;27;20772;-86
2022/12/27 00:27:51;;;;;;;11.75;1.25;;;3.80;93.10;;;;;;5093013;27;20414;-87
2022/12/27 00:30:16;;;;;;;10.30;1.33;;;3.80;93.00;;;;;;5108490;27;20923;-86
2022/12/27 00:32:42;;;;;;;11.40;1.23;;;3.70;93.20;;;;;;5093049;27;21169;-88
2022/12/27 00:35:08;;;;;;;10.50;1.40;;;3.80;93.60;;;;;;5108666;27;20493;-87
2022/12/27 00:37:34;;;;;;;12.27;0.95;;;3.80;93.40;;;;;;5109492;27;20422;-88
2022/12/27 00:39:59;;;;;;;10.88;1.23;;;3.80;93.30;;;;;;5109395;27;20464;-87
2022/12/27 00:42:25;;;;;;;8.97;1.17;;;3.90;93.30;;;;;;5091664;27;20406;-87
2022/12/27 00:44:50;;;;;;;12.47;1.50;;;3.90;93.20;;;;;;5092973;27;20398;-87
2022/12/27 00:47:16;;;;;;;12.10;1.17;;;3.90;93.20;;;;;;5091257;27;20768;-86
2022/12/27 00:49:41;;;;;;;11.87;1.60;;;3.90;93.00;;;;;;5092762;27;20413;-87
2022/12/27 00:52:07;;;;;;;11.77;1.20;;;3.90;93.10;;;;;;5107816;27;20415;-88
2022/12/27 00:54:33;;;;;;;11.25;1.52;;;3.90;93.50;;;;;;5092020;28;20399;-87
2022/12/27 00:56:58;;;;;;;14.00;1.70;;;3.90;93.20;;;;;;5091376;27;20439;-86
2022/12/27 00:59:24;;;;;;;11.55;1.05;;;3.90;93.50;;;;;;5091989;27;20857;-87
2022/12/27 01:01:49;;;;;;;13.40;1.67;;;4.10;93.50;;;;;;5109013;27;20399;-87
2022/12/27 01:04:16;;;;;;;11.47;1.27;;;4.00;93.50;;;;;;5107911;27;20410;-87
2022/12/27 01:06:41;;;;;;;12.32;1.15;;;4.00;93.40;;;;;;5092350;27;20908;-87
2022/12/27 01:09:08;;;;;;;14.33;1.77;;;4.10;93.30;;;;;;5107184;27;20403;-86
2022/12/27 01:11:34;;;;;;;13.75;1.60;;;4.10;93.40;;;;;;5109355;27;20395;-86
2022/12/27 01:14:01;;;;;;;14.10;1.42;;;4.20;93.30;;;;;;5090383;27;20523;-87
2022/12/27 01:16:30;;;;;;;13.48;1.38;;;4.20;93.20;;;;;;5091606;27;20789;-87
2022/12/27 01:18:56;;;;;;;8.63;1.30;;;4.30;93.20;;;;;;5091045;27;20417;-87
2022/12/27 01:21:24;;;;;;;14.90;1.30;;;4.30;93.00;;;;;;5090628;27;20419;-86
2022/12/27 01:23:49;;;;;;;12.20;1.70;;;4.30;93.10;;;;;;5091041;27;20406;-87
2022/12/27 01:26:18;;;;;;;13.18;1.50;;;4.40;93.00;;;;;;5107517;27;20409;-86
2022/12/27 01:28:44;;;;;;;11.77;1.30;;;4.40;92.90;;;;;;5091775;27;21215;-87
2022/12/27 01:31:17;;;;;;;8.75;1.10;;;4.50;93.00;;;;;;5090716;27;21084;-87
2022/12/27 01:33:42;;;;;;;11.95;0.82;;;4.60;93.00;;;;;;5107954;27;20478;-87
2022/12/27 01:36:11;;;;;;;8.20;0.90;;;4.60;92.80;;;;;;5107719;27;20856;-87
2022/12/27 01:38:37;;;;;;;8.05;0.85;;;4.70;92.60;;;;;;5089643;27;20420;-87
2022/12/27 01:42:50;;;;;;;8.10;0.70;;;4.70;92.30;;;;;;5091342;27;20984;-87
2022/12/27 01:43:48;;;;;;;8.68;1.30;;;4.80;92.20;;;;;;5106780;27;20777;-88
2022/12/27 01:46:14;;;;;;;5.67;0.60;;;4.80;92.20;;;;;;5109290;27;20489;-90
2022/12/27 01:48:40;;;;;;;6.97;0.80;;;4.90;92.10;;;;;;5091761;27;20893;-89
2022/12/27 01:51:06;;;;;;;6.82;0.55;;;4.90;91.90;;;;;;5108221;27;20406;-87
2022/12/27 01:53:38;;;;;;;6.50;0.70;;;4.90;91.80;;;;;;5090722;27;20946;-88
2022/12/27 01:56:15;;;;;;;5.60;0.70;;;4.90;91.80;;;;;;5090452;27;20402;-87
2022/12/27 01:58:54;;;;;;;8.02;0.70;;;4.90;92.00;;;;;;5108426;27;20418;-89
2022/12/27 02:01:23;;;;;;;6.30;0.63;;;4.80;92.10;;;;;;5107108;27;21008;-88
2022/12/27 02:03:51;;;;;;;7.53;0.80;;;4.80;92.10;;;;;;5091754;28;20912;-87
2022/12/27 02:06:19;;;;;;;6.60;0.60;;;4.80;92.20;;;;;;5089747;28;20394;-87
2022/12/27 02:08:51;;;;;;;8.83;0.90;;;4.80;92.20;;;;;;5090121;27;20402;-88
2022/12/27 02:11:49;;;;;;;7.97;0.90;;;4.70;92.30;;;;;;5107818;27;20398;-87
2022/12/27 02:14:09;;;;;;;8.27;1.02;;;4.70;92.40;;;;;;5106393;27;20479;-87
2022/12/27 02:16:35;;;;;;;10.60;1.00;;;4.70;92.70;;;;;;5108452;28;20422;-87
2022/12/27 02:19:01;;;;;;;12.80;1.30;;;4.70;92.80;;;;;;5090080;28;20782;-87
2022/12/27 02:21:49;;;;;;;14.00;1.40;;;4.70;92.90;;;;;;5091648;28;20405;-86
2022/12/27 02:24:40;;;;;;;11.80;1.17;;;4.80;93.10;;;;;;5090630;28;20818;-87
2022/12/27 02:27:26;;;;;;;6.15;0.57;;;4.90;93.00;;;;;;5088211;28;20418;-88
2022/12/27 02:30:00;;;;;;;6.50;0.80;;;5.00;92.80;;;;;;5108426;28;20409;-88
2022/12/27 02:33:07;;;;;;;8.85;1.02;;;5.00;92.40;;;;;;5108353;28;20814;-87
2022/12/27 02:35:50;;;;;;;8.80;1.00;;;5.00;92.00;;;;;;5106593;28;20753;-87
2022/12/27 02:38:18;;;;;;;8.80;0.85;;;5.00;91.80;;;;;;5108009;28;20440;-87
2022/12/27 02:55:24;;;;;;;9.32;1.20;;;4.70;92.60;;;;;;5108382;28;20802;-88
2022/12/27 02:58:11;;;;;;;9.57;1.30;;;4.70;92.60;;;;;;5089356;28;20426;-85
2022/12/27 03:04:20;;;;;;;11.65;1.20;;;4.80;92.70;;;;;;5107604;28;20916;-87
2022/12/27 03:07:01;;;;;;;9.48;1.30;;;4.90;92.90;;;;;;5068406;28;20486;-88
2022/12/27 03:15:55;;;;;;;10.32;1.60;;;5.00;92.90;;;;;;5106903;28;20886;-87
2022/12/27 03:18:34;;;;;;;8.85;0.98;;;5.00;93.40;;;;;;5090741;27;20442;-88
2022/12/27 03:26:38;;;;;;;14.60;1.77;;;5.00;93.80;;;;;;5110362;27;20485;-88
2022/12/27 03:34:52;;;;;;;9.05;1.10;;;4.90;92.90;;;;;;5110651;27;20402;-88
2022/12/27 03:40:33;;;;;;;10.10;1.13;;;4.90;92.60;;;;;;5109813;27;20493;-86
2022/12/27 03:43:14;;;;;;;9.35;1.30;;;4.90;92.70;;;;;;5094148;27;20399;-89
2022/12/27 03:49:08;;;;;;;9.90;1.15;;;4.90;92.70;;;;;;5109434;27;20435;-87
2022/12/27 03:51:40;;;;;;;12.93;1.50;;;4.90;92.50;;;;;;5093797;27;20442;-87
2022/12/27 03:54:14;;;;;;;9.15;1.25;;;4.90;92.50;;;;;;5092115;27;20406;-87
2022/12/27 03:56:41;;;;;;;10.73;1.52;;;4.90;92.30;;;;;;5095694;27;20475;-87
2022/12/27 03:59:09;;;;;;;9.38;1.40;;;4.90;92.30;;;;;;5113475;27;20421;-86
2022/12/27 04:01:35;;;;;;;10.57;1.30;;;5.00;92.30;;;;;;5113013;27;20427;-88
2022/12/27 04:04:00;;;;;;;10.53;1.20;;;4.80;92.20;;;;;;5113886;27;20804;-87
2022/12/27 04:06:26;;;;;;;11.25;1.45;;;4.80;92.10;;;;;;5129549;27;20796;-87
2022/12/27 04:36:12;;;;;;;15.27;2.35;;;4.60;93.30;;;;;;5125618;27;20411;-87
2022/12/27 04:38:37;;;;;;;15.57;1.90;;;4.70;93.40;;;;;;5109450;27;20482;-86
2022/12/27 04:55:16;;;;;;;11.05;1.42;;;4.80;93.20;;;;;;5125459;27;20916;-86
2022/12/27 04:57:41;;;;;;;10.82;1.30;;;4.70;92.80;;;;;;5125271;27;20945;-87
2022/12/27 05:02:52;;;;;;;8.90;1.20;;;4.70;92.40;;;;;;5124724;27;20437;-86
2022/12/27 05:05:17;;;;;;;11.43;0.77;;;4.60;92.10;;;;;;5109326;27;20449;-88
2022/12/27 05:15:56;;;;;;;10.90;1.48;;;4.40;92.10;;;;;;5124297;27;20403;-86
2022/12/27 05:18:22;;;;;;;11.03;1.70;;;4.40;92.20;;;;;;5109193;27;20528;-86
2022/12/27 05:20:48;;;;;;;11.25;1.52;;;4.40;92.20;;;;;;5124489;27;20467;-87
2022/12/27 05:25:58;;;;;;;14.60;1.75;;;4.30;92.20;;;;;;5125385;27;20395;-87
2022/12/27 05:28:23;;;;;;;15.30;1.98;;;4.20;92.40;;;;;;5124690;27;20463;-86
2022/12/27 05:30:49;;;;;;;10.40;1.60;;;4.20;92.50;;;;;;5125874;27;20874;-88
2022/12/27 05:33:15;;;;;;;14.27;1.93;;;4.20;92.70;;;;;;5123529;27;20414;-87
2022/12/27 05:35:40;;;;;;;14.65;1.75;;;4.20;92.70;;;;;;5125895;27;20407;-87
2022/12/27 05:38:06;;;;;;;15.48;2.17;;;4.20;92.90;;;;;;5107087;27;20426;-87
2022/12/27 05:40:32;;;;;;;13.23;1.75;;;4.10;92.80;;;;;;5124974;27;20490;-87
2022/12/27 05:42:59;;;;;;;12.05;1.95;;;4.10;93.00;;;;;;5107911;27;20395;-87
2022/12/27 05:45:26;;;;;;;12.23;1.83;;;4.10;92.90;;;;;;5107357;27;20429;-87
2022/12/27 05:47:52;;;;;;;15.25;1.85;;;4.00;92.90;;;;;;5125445;27;20417;-87
2022/12/27 05:50:17;;;;;;;13.43;1.63;;;4.10;92.80;;;;;;5123768;27;20411;-87
2022/12/27 05:52:43;;;;;;;13.63;1.30;;;4.00;92.80;;;;;;5125271;27;20927;-86
2022/12/27 05:55:09;;;;;;;14.07;1.63;;;4.00;92.70;;;;;;5123497;27;20747;-87
2022/12/27 05:57:35;;;;;;;12.93;1.67;;;3.90;92.70;;;;;;5107703;27;20545;-87
2022/12/27 06:00:00;;;;;;;11.43;1.55;;;3.90;92.70;;;;;;5107541;27;20403;-87
2022/12/27 06:02:26;;;;;;;13.70;1.70;;;3.90;92.80;;;;;;5106989;27;20443;-87
2022/12/27 06:04:51;;;;;;;13.57;1.80;;;3.90;92.80;;;;;;5124616;27;20413;-87
2022/12/27 06:07:17;;;;;;;12.73;2.13;;;3.80;92.70;;;;;;5106565;27;20395;-86
2022/12/27 06:09:43;;;;;;;12.60;1.85;;;3.80;92.70;;;;;;5108195;27;20941;-87
2022/12/27 06:12:08;;;;;;;11.13;1.60;;;3.80;92.70;;;;;;5106350;27;20402;-87
2022/12/27 06:14:34;;;;;;;11.23;1.77;;;3.70;92.60;;;;;;5108319;27;20399;-87
2022/12/27 06:16:59;;;;;;;17.00;2.22;;;3.60;92.70;;;;;;5123507;27;20877;-86
2022/12/27 06:19:25;;;;;;;13.80;1.73;;;3.60;92.80;;;;;;5124535;27;20406;-88
2022/12/27 06:21:51;;;;;;;15.40;2.23;;;3.60;92.90;;;;;;5124160;28;20841;-86
2022/12/27 06:24:16;;;;;;;14.05;1.70;;;3.50;93.00;;;;;;5123753;28;20995;-87
2022/12/27 06:26:42;;;;;;;18.05;2.10;;;3.50;93.30;;;;;;5098006;28;20404;-87
2022/12/27 06:29:10;;;;;;;13.17;2.10;;;3.50;93.60;;;;;;5085394;28;20989;-87
2022/12/27 06:31:35;;;;;;;14.50;1.45;;;3.40;93.40;;;;;;5086952;28;20401;-87
2022/12/27 06:34:02;;;;;;;13.82;1.73;;;3.40;93.30;;;;;;5085552;28;20423;-87
2022/12/27 06:36:29;;;;;;;15.98;1.65;;;3.40;93.40;;;;;;5104247;28;20424;-87
2022/12/27 06:38:58;;;;;;;15.02;1.60;;;3.30;93.50;;;;;;5085722;28;20466;-86
2022/12/27 06:41:24;;;;;;;13.40;1.50;;;3.40;93.60;;;;;;5102171;28;20406;-86
2022/12/27 06:43:54;;;;;;;14.05;2.00;;;3.50;93.30;;;;;;5086570;28;20490;-87
2022/12/27 06:46:20;;;;;;;12.38;1.65;;;3.30;93.40;;;;;;5086032;28;20769;-87
2022/12/27 06:48:46;;;;;;;19.25;2.35;;;3.30;93.40;;;;;;5104210;28;20408;-87
2022/12/27 06:51:13;;;;;;;11.15;1.45;;;3.30;93.50;;;;;;5084257;28;20427;-89
2022/12/27 06:53:39;;;;;;;12.68;1.63;;;3.20;93.50;;;;;;5106572;28;20400;-88
2022/12/27 06:56:10;;;;;;;14.90;1.87;;;3.20;93.60;;;;;;5090053;28;20408;-87
2022/12/27 06:58:36;;;;;;;11.27;1.52;;;3.20;93.40;;;;;;5125004;27;20444;-87
2022/12/27 07:01:15;;;;;;;13.45;1.60;;;3.10;93.60;;;;;;5108417;28;20444;-87
2022/12/27 07:03:41;;;;;;;11.85;1.33;;;3.20;93.70;;;;;;5089903;28;20821;-88
2022/12/27 07:06:10;;;;;;;17.17;1.83;;;3.20;93.80;;;;;;5090889;28;20408;-87
2022/12/27 07:08:36;;;;;;;12.88;1.65;;;3.20;93.90;;;;;;5107368;28;20401;-88
2022/12/27 07:11:04;;;;;;;11.02;1.60;;;3.20;93.90;;;;;;5091448;28;20445;-87
2022/12/27 07:13:33;;;;;;;14.68;1.80;;;3.30;93.80;;;;;;5107917;28;20407;-87
2022/12/27 07:15:59;;;;;;;11.35;1.38;;;3.50;93.70;;;;;;5108189;28;20396;-90
2022/12/27 07:18:24;;;;;;;12.77;1.80;;;3.30;93.80;;;;;;5091394;28;20428;-86
2022/12/27 07:20:50;;;;;;;12.82;1.80;;;3.30;93.70;;;;;;5123416;27;20939;-88
2022/12/27 07:23:16;;;;;;;14.17;1.70;;;3.40;93.80;;;;;;5108019;28;20775;-87
2022/12/27 07:25:41;;;;;;;12.03;1.30;;;3.40;93.70;;;;;;5089945;28;20920;-89
2022/12/27 07:28:07;;;;;;;12.60;1.60;;;3.60;93.70;;;;;;5108716;28;20570;-89
2022/12/27 07:30:33;;;;;;;12.85;1.65;;;3.40;93.60;;;;;;5089897;28;20397;-88
2022/12/27 07:32:58;;;;;;;13.00;1.90;;;3.40;93.70;;;;;;5107374;28;20417;-87
2022/12/27 07:35:27;;;;;;;13.85;1.92;;;3.40;93.60;;;;;;5091193;28;20476;-87
2022/12/27 07:37:53;;;;;;;13.77;1.80;;;3.20;93.60;;;;;;5089437;28;20496;-87
2022/12/27 07:40:19;;;;;;;13.80;1.80;;;3.40;93.60;;;;;;5090285;28;20405;-87
2022/12/27 07:42:45;;;;;;;15.57;1.57;;;3.40;93.70;;;;;;5089189;28;20405;-88
2022/12/27 07:45:10;;;;;;;15.02;2.55;;;3.40;93.80;;;;;;5125114;27;20392;-87
2022/12/27 07:47:36;;;;;;;14.75;1.90;;;3.40;93.90;;;;;;5089697;28;20748;-87
2022/12/27 07:50:02;;;;;;;14.23;2.23;;;3.40;93.80;;;;;;5090976;28;20405;-88
2022/12/27 07:52:27;;;;;;;15.48;2.58;;;3.30;93.70;;;;;;5107027;28;20405;-87
2022/12/27 07:54:53;;;;;;;14.15;2.60;;;3.30;94.20;;;;;;5090296;28;20480;-89
2022/12/27 07:57:18;;;;;;;13.73;2.23;;;3.20;94.10;;;;;;5124757;27;20955;-87
2022/12/27 07:59:44;;;;;;;18.57;2.67;;;3.20;94.20;;;;;;5089785;28;20404;-89
2022/12/27 08:02:10;;;;;;;14.32;1.77;;;3.10;94.00;;;;;;5091001;28;20446;-88
2022/12/27 08:04:37;;;;;;;14.73;2.20;;;3.10;93.90;;;;;;5106075;28;20821;-87
2022/12/27 08:07:12;;;;;;;17.67;2.28;;;3.00;93.80;;;;;;5090530;28;20453;-87
2022/12/27 08:09:39;;;;;;;17.58;2.28;;;3.00;94.00;;;;;;5105630;28;20463;-86
2022/12/27 08:12:06;;;;;;;18.70;2.55;;;2.90;93.90;;;;;;5089367;28;20411;-88
2022/12/27 08:14:32;;;;;;;10.83;2.23;;;2.90;94.00;;;;;;5107157;28;20409;-89
2022/12/27 08:17:03;;;;;;;16.17;2.70;;;2.80;94.00;;;;;;5123591;27;20439;-88
2022/12/27 08:19:29;;;;;;;13.68;2.40;;;2.80;94.10;;;;;;5089753;28;20400;-86
2022/12/27 08:21:55;;;;;;;15.83;2.80;;;2.90;94.00;;;;;;5104513;28;20427;-85
2022/12/27 08:24:20;;;;;;;14.73;2.73;;;2.80;94.00;;;;;;5106758;28;20491;-87
2022/12/27 08:26:46;;;;;;;12.30;2.22;;;2.70;94.20;;;;;;5105349;28;20404;-87
2022/12/27 08:29:12;;;;;;;16.13;2.50;;;2.80;94.20;;;;;;5105872;28;20408;-87
2022/12/27 08:31:38;;;;;;;14.80;2.63;;;2.70;94.10;;;;;;5105729;28;20432;-86
2022/12/27 08:34:04;;;;;;;13.07;2.28;;;2.80;94.30;;;;;;5104917;28;20407;-88
2022/12/27 08:36:29;;;;;;;16.02;2.53;;;2.80;94.30;;;;;;5088460;28;20432;-87
2022/12/27 08:38:55;;;;;;;11.30;2.13;;;2.90;94.40;;;;;;5121690;27;20496;-87
2022/12/27 08:41:21;;;;;;;15.27;2.87;;;2.90;94.40;;;;;;5106356;28;20767;-87
2022/12/27 08:43:47;;;;;;;15.48;2.65;;;3.00;94.30;;;;;;5121245;27;20400;-87
2022/12/27 08:46:13;;;;;;;13.80;2.67;;;3.00;94.30;;;;;;5088946;28;20538;-87
2022/12/27 08:48:38;;;;;;;15.10;1.90;;;3.10;94.20;;;;;;5104855;28;20412;-86
2022/12/27 08:51:07;;;;;;;15.50;2.55;;;3.10;94.20;;;;;;5105152;28;20413;-86
2022/12/27 08:53:33;;;;;;;15.15;2.30;;;3.20;94.20;;;;;;5105555;28;20440;-86
2022/12/27 08:55:59;;;;;;;14.40;2.45;;;3.30;94.20;;;;;;5121303;27;20941;-86
2022/12/27 08:58:25;;;;;;;14.73;2.05;;;3.30;94.00;;;;;;5105446;28;20432;-86
2022/12/27 09:00:51;;;;;;;13.10;2.05;;;3.40;93.90;;;;;;5103602;28;20397;-87
2022/12/27 09:03:18;;;;;;;13.20;2.13;;;3.50;93.70;;;;;;5089088;28;20906;-86
2022/12/27 09:05:45;;;;;;;10.50;2.10;;;3.70;93.60;;;;;;5121324;27;20404;-86
2022/12/27 09:08:11;;;;;;;14.35;1.80;;;3.70;93.40;;;;;;5088297;28;20397;-87
2022/12/27 09:10:38;;;;;;;11.70;2.20;;;3.80;93.20;;;;;;5105263;28;20403;-88
2022/12/27 09:13:03;;;;;;;13.25;2.13;;;3.90;93.10;;;;;;5104758;28;20401;-87
2022/12/27 09:15:29;;;;;;;11.80;1.88;;;4.00;92.90;;;;;;5104978;28;20477;-88
2022/12/27 09:17:55;;;;;;;11.63;1.73;;;4.00;92.80;;;;;;5104350;28;20944;-87
2022/12/27 09:20:21;;;;;;;9.83;1.63;;;4.10;92.70;;;;;;5105737;28;20413;-86
2022/12/27 09:22:46;;;;;;;12.50;1.77;;;4.20;92.50;;;;;;5121460;27;20478;-87
2022/12/27 09:25:12;;;;;;;12.52;1.77;;;4.20;92.40;;;;;;5105788;28;20449;-87
2022/12/27 09:27:38;;;;;;;11.15;1.42;;;4.30;92.30;;;;;;5104425;28;20400;-86
2022/12/27 09:30:06;;;;;;;13.50;1.40;;;4.30;92.20;;;;;;5121853;27;20437;-87
2022/12/27 09:32:32;;;;;;;9.75;1.42;;;4.40;92.10;;;;;;5089879;27;20427;-88
2022/12/27 09:34:58;;;;;;;14.90;1.90;;;4.50;92.10;;;;;;5107563;27;20407;-87
2022/12/27 09:37:23;;;;;;;9.80;1.80;;;4.50;92.10;;;;;;5095489;27;20430;-87
2022/12/27 09:39:50;;;;;;;11.52;1.50;;;4.60;92.20;;;;;;5106951;27;20415;-88
2022/12/27 09:43:13;;;;;;;11.18;1.40;;;4.80;92.00;;;;;;5108635;27;20409;-87
2022/12/27 09:45:41;;;;;;;9.98;1.63;;;5.00;91.40;;;;;;4997725;28;21080;-87
2022/12/27 09:48:22;;;;;;;11.75;1.65;;;5.30;91.00;;;;;;5029948;28;20807;-88
2022/12/27 09:50:56;;;;;;;6.00;0.93;;;5.50;90.30;;;;;;5075283;27;20489;-87
2022/12/27 09:53:35;;;;;;;9.73;1.38;;;5.70;90.40;;;;;;5089715;27;20418;-87
2022/12/27 09:56:01;;;;;;;8.93;1.38;;;5.90;90.20;;;;;;5107675;27;20445;-88
2022/12/27 09:58:32;;;;;;;8.88;1.00;;;6.10;90.00;;;;;;5090619;27;20452;-87
2022/12/27 10:00:59;;;;;;;10.82;1.60;;;6.30;89.00;;;;;;5092788;27;20798;-88
2022/12/27 10:03:27;;;;;;;10.60;1.35;;;6.30;87.10;;;;;;5128602;27;20560;-87
2022/12/27 10:06:06;;;;;;;9.85;1.27;;;6.40;86.20;;;;;;5109391;27;20407;-87
2022/12/27 10:09:13;;;;;;;6.80;1.00;;;6.30;87.40;;;;;;5128513;27;20401;-88
2022/12/27 10:12:13;;;;;;;8.93;1.25;;;6.30;87.40;;;;;;5072148;27;20397;-87
2022/12/27 10:14:41;;;;;;;8.20;1.52;;;6.30;86.90;;;;;;5088135;27;20480;-87
2022/12/27 10:17:40;;;;;;;9.65;1.30;;;6.20;87.50;;;;;;5125588;27;20492;-86
2022/12/27 10:20:45;;;;;;;7.75;1.10;;;6.30;87.50;;;;;;5107241;27;20402;-87
2022/12/27 10:23:15;;;;;;;6.25;1.17;;;6.40;88.30;;;;;;5126682;27;20466;-87
2022/12/27 10:25:45;;;;;;;10.00;1.67;;;6.40;87.80;;;;;;5128959;27;20755;-87
2022/12/27 10:28:24;;;;;;;6.03;1.45;;;6.30;87.90;;;;;;5128277;27;20477;-87
2022/12/27 10:30:51;;;;;;;8.55;1.33;;;6.20;88.50;;;;;;5114788;27;20790;-87
2022/12/27 10:33:29;;;;;;;12.10;1.47;;;6.20;88.80;;;;;;5114555;27;21009;-86
2022/12/27 10:35:56;;;;;;;11.63;1.48;;;6.10;88.50;;;;;;5113869;27;20409;-87
2022/12/27 10:38:23;;;;;;;10.25;1.02;;;6.10;89.40;;;;;;5132328;27;20433;-85
2022/12/27 10:40:58;;;;;;;7.57;1.02;;;6.10;89.80;;;;;;5131397;27;20405;-87
2022/12/27 10:43:38;;;;;;;8.63;1.00;;;6.20;90.00;;;;;;5132120;27;20412;-87
2022/12/27 10:46:12;;;;;;;9.20;1.20;;;6.30;90.40;;;;;;5131899;27;20438;-87
2022/12/27 10:48:37;;;;;;;8.85;1.20;;;6.40;90.10;;;;;;5130476;27;20405;-86
2022/12/27 10:51:10;;;;;;;8.73;1.47;;;6.50;90.00;;;;;;5132170;27;20875;-86
2022/12/27 10:53:56;;;;;;;10.55;1.20;;;6.70;89.90;;;;;;5130360;27;20753;-86
2022/12/27 10:56:40;;;;;;;9.65;1.17;;;7.10;88.40;;;;;;5132034;27;20413;-88
2022/12/27 10:59:14;;;;;;;11.45;1.20;;;7.70;86.90;;;;;;5131946;27;20492;-87
2022/12/27 11:01:40;;;;;;;7.63;1.10;;;7.70;86.60;;;;;;5131085;27;20444;-87
2022/12/27 11:04:11;;;;;;;7.13;1.03;;;7.90;84.20;;;;;;5131552;27;20397;-88
2022/12/27 11:06:37;;;;;;;6.32;0.90;;;8.00;84.40;;;;;;5113576;27;20393;-87
2022/12/27 11:09:24;;;;;;;9.90;1.27;;;8.00;83.50;;;;;;5114800;27;20413;-88
2022/12/27 11:11:50;;;;;;;7.30;1.20;;;8.00;83.10;;;;;;5114397;27;20448;-88
2022/12/27 11:14:19;;;;;;;7.40;0.93;;;8.00;83.80;;;;;;5113767;27;20748;-89
2022/12/27 11:16:47;;;;;;;7.90;1.20;;;7.90;83.50;;;;;;5115005;27;20506;-88
2022/12/27 11:19:23;;;;;;;7.68;1.10;;;7.80;83.10;;;;;;5113305;27;20432;-88
2022/12/27 11:21:50;;;;;;;8.48;0.77;;;7.70;83.70;;;;;;5116287;27;20488;-88
2022/12/27 11:24:17;;;;;;;9.57;0.93;;;7.90;82.90;;;;;;5131761;27;20408;-88
2022/12/27 11:26:56;;;;;;;7.05;0.90;;;7.80;83.70;;;;;;5115374;27;20793;-89
2022/12/27 11:29:25;;;;;;;8.50;1.08;;;7.90;85.30;;;;;;5115246;27;20401;-89
2022/12/27 11:31:52;;;;;;;8.57;1.10;;;7.90;83.40;;;;;;5114827;27;20394;-88
2022/12/27 11:34:29;;;;;;;8.40;1.20;;;7.90;83.40;;;;;;5094657;27;20407;-89
2022/12/27 11:37:04;;;;;;;9.57;1.13;;;7.80;84.40;;;;;;5111235;27;20418;-90
2022/12/27 11:39:43;;;;;;;7.90;1.60;;;7.80;84.70;;;;;;5111667;27;20421;-90
2022/12/27 11:42:48;;;;;;;8.97;1.30;;;7.70;85.70;;;;;;5094501;27;20947;-90
2022/12/27 11:45:17;;;;;;;8.40;1.00;;;7.70;85.10;;;;;;5093039;27;20413;-88
2022/12/27 11:47:55;;;;;;;7.97;0.93;;;7.70;86.80;;;;;;5111678;27;20810;-89
2022/12/27 11:50:27;;;;;;;9.27;1.30;;;7.60;86.00;;;;;;5111117;27;20904;-90
2022/12/27 11:53:13;;;;;;;10.60;1.38;;;7.60;85.30;;;;;;5111296;27;20496;-89
2022/12/27 11:56:16;;;;;;;8.23;1.30;;;7.60;85.60;;;;;;5110625;27;20423;-89
2022/12/27 11:59:03;;;;;;;10.05;1.17;;;7.70;85.50;;;;;;5092715;27;20403;-88
2022/12/27 12:02:19;;;;;;;6.63;0.90;;;7.60;85.70;;;;;;5110735;27;20505;-88
2022/12/27 12:05:18;;;;;;;9.23;1.23;;;7.60;85.80;;;;;;5065683;27;20446;-88
2022/12/27 12:08:24;;;;;;;8.80;1.30;;;7.70;85.60;;;;;;5092258;27;20410;-88
2022/12/27 12:11:13;;;;;;;7.97;1.20;;;7.80;85.00;;;;;;5042815;27;20411;-89
2022/12/27 12:14:11;;;;;;;6.85;1.48;;;7.90;84.90;;;;;;5110660;27;20467;-88
2022/12/27 12:16:39;;;;;;;8.32;1.05;;;8.00;85.60;;;;;;5109669;27;20946;-88
2022/12/27 12:19:20;;;;;;;9.60;1.27;;;8.10;84.10;;;;;;5109616;27;20402;-89
2022/12/27 12:21:57;;;;;;;7.43;1.13;;;8.20;83.90;;;;;;5110767;27;20420;-88
2022/12/27 12:24:34;;;;;;;7.75;1.20;;;8.30;83.80;;;;;;5091381;27;20497;-88
2022/12/27 12:27:09;;;;;;;9.35;1.23;;;8.40;83.80;;;;;;5110168;27;20414;-89
2022/12/27 12:30:06;;;;;;;9.43;1.80;;;8.40;81.90;;;;;;5109269;27;20406;-87
2022/12/27 12:32:56;;;;;;;7.65;1.35;;;8.30;82.80;;;;;;5044732;27;20434;-87
2022/12/27 12:35:31;;;;;;;10.37;1.13;;;8.20;84.50;;;;;;5110092;27;20495;-88
2022/12/27 12:38:11;;;;;;;8.05;1.27;;;8.10;83.60;;;;;;5108877;27;20892;-88
2022/12/27 12:40:55;;;;;;;10.45;1.80;;;8.00;83.80;;;;;;5092107;27;20477;-88
2022/12/27 12:43:42;;;;;;;11.03;1.33;;;7.90;84.60;;;;;;5092816;27;20414;-89
2022/12/27 12:46:33;;;;;;;9.00;1.30;;;7.80;85.00;;;;;;5108565;27;20406;-88
2022/12/27 12:49:20;;;;;;;8.93;1.23;;;7.70;85.90;;;;;;5109905;27;20403;-88
2022/12/27 12:51:53;;;;;;;9.23;1.20;;;7.60;85.40;;;;;;5108559;27;20409;-88
2022/12/27 12:54:35;;;;;;;8.23;1.20;;;7.50;86.50;;;;;;5129107;27;20412;-88
2022/12/27 12:57:14;;;;;;;7.90;1.07;;;7.50;86.50;;;;;;5112680;27;20858;-87
2022/12/27 13:00:07;;;;;;;7.47;1.05;;;7.40;87.50;;;;;;5129095;27;20422;-86
2022/12/27 13:02:51;;;;;;;7.63;0.88;;;7.40;87.30;;;;;;5128148;27;20405;-88
2022/12/27 13:05:26;;;;;;;8.13;1.30;;;7.40;87.20;;;;;;5111766;27;20400;-88
2022/12/27 13:08:01;;;;;;;9.48;1.90;;;7.40;86.80;;;;;;5109951;27;20612;-87
2022/12/27 13:11:15;;;;;;;7.70;1.30;;;7.40;88.00;;;;;;5111254;27;20407;-88
2022/12/27 13:13:55;;;;;;;7.88;1.50;;;7.50;87.70;;;;;;5027366;28;20410;-90
2022/12/27 13:16:28;;;;;;;9.93;1.75;;;7.50;87.00;;;;;;5118309;27;20413;-88
2022/12/27 13:18:54;;;;;;;11.15;1.80;;;7.40;87.30;;;;;;5130382;27;20437;-89
2022/12/27 13:21:38;;;;;;;11.85;1.85;;;7.30;88.10;;;;;;5129131;27;20444;-88
2022/12/27 13:24:22;;;;;;;9.60;1.80;;;7.20;88.70;;;;;;5129403;27;20397;-88
2022/12/27 13:27:04;;;;;;;10.20;1.70;;;7.10;89.30;;;;;;5111558;27;20789;-89
2022/12/27 13:29:44;;;;;;;11.25;2.13;;;7.10;89.50;;;;;;5091577;27;20411;-89
2022/12/27 13:32:22;;;;;;;12.60;1.85;;;7.00;89.70;;;;;;5119610;27;20411;-89
2022/12/27 13:35:00;;;;;;;12.52;2.08;;;7.00;89.40;;;;;;5126773;27;20421;-89
2022/12/27 13:37:54;;;;;;;11.07;1.98;;;6.90;89.70;;;;;;5125682;27;20430;-89
2022/12/27 13:40:50;;;;;;;9.38;2.13;;;6.90;90.10;;;;;;5092830;27;20494;-88
2022/12/27 13:43:35;;;;;;;11.80;2.13;;;6.80;90.10;;;;;;5065104;27;21037;-88
2022/12/27 13:46:07;;;;;;;11.85;2.35;;;6.80;90.20;;;;;;5090382;27;20422;-88
2022/12/27 13:48:59;;;;;;;8.75;2.00;;;6.70;90.30;;;;;;5092281;27;20524;-89
2022/12/27 13:51:34;;;;;;;10.93;2.15;;;6.70;90.60;;;;;;5107474;27;20459;-88
2022/12/27 13:54:44;;;;;;;12.88;2.70;;;6.80;90.70;;;;;;5108079;27;20412;-89
2022/12/27 13:57:29;;;;;;;12.63;2.37;;;6.70;91.00;;;;;;5075629;28;20430;-89
2022/12/27 14:00:17;;;;;;;9.63;2.65;;;6.60;90.90;;;;;;5107414;27;20779;-89
2022/12/27 14:03:09;;;;;;;16.13;3.88;;;6.60;91.00;;;;;;5091463;27;20739;-89
2022/12/27 14:06:04;;;;;;;12.38;3.38;;;6.60;91.20;;;;;;5109064;27;20494;-88
2022/12/27 14:08:45;;;;;;;10.88;2.83;;;6.60;91.20;;;;;;5108064;27;20407;-86
2022/12/27 14:11:31;;;;;;;12.77;3.20;;;6.70;91.20;;;;;;5108453;28;20410;-88
2022/12/27 14:13:58;;;;;;;12.27;3.10;;;6.70;91.40;;;;;;5108957;27;20409;-87
2022/12/27 14:16:46;;;;;;;11.73;3.20;;;6.70;91.40;;;;;;5090529;28;20403;-90
2022/12/27 14:19:25;;;;;;;10.20;2.78;;;6.70;91.60;;;;;;5109009;28;20422;-88
2022/12/27 14:22:35;;;;;;;11.02;3.45;;;6.70;91.40;;;;;;5091036;27;20430;-89
2022/12/27 14:25:15;;;;;;;12.60;3.33;;;6.70;91.70;;;;;;5090521;28;20831;-88
2022/12/27 14:28:38;;;;;;;9.25;2.90;;;6.70;91.70;;;;;;5108700;28;20406;-88
2022/12/27 14:31:03;;;;;;;14.00;3.42;;;6.60;91.70;;;;;;5046302;28;20457;-88
2022/12/27 14:33:56;;;;;;;12.05;2.97;;;6.60;91.60;;;;;;5029836;28;20412;-88
2022/12/27 14:36:47;;;;;;;14.63;3.60;;;6.50;91.60;;;;;;5069535;28;20407;-86
2022/12/27 14:39:34;;;;;;;10.88;3.65;;;6.50;91.70;;;;;;5089203;28;20421;-87
2022/12/27 14:42:15;;;;;;;11.57;4.32;;;6.50;91.80;;;;;;5089504;28;20464;-86
2022/12/27 14:45:15;;;;;;;10.77;4.20;;;6.50;91.80;;;;;;5090826;28;20460;-88
2022/12/27 14:48:06;;;;;;;14.07;4.70;;;6.40;91.90;;;;;;5089809;28;20414;-88
2022/12/27 14:50:49;;;;;;;13.93;4.63;;;6.40;91.90;;;;;;5090059;28;20414;-88
2022/12/27 14:53:35;;;;;;;15.98;4.80;;;6.50;92.10;;;;;;5091952;28;20459;-89
2022/12/27 14:56:26;;;;;;;12.25;4.72;;;6.30;92.10;;;;;;5089940;28;20413;-87
2022/12/27 14:59:20;;;;;;;12.15;5.32;;;6.30;92.20;;;;;;5091032;28;20406;-89